Time;durP1;ratioP1;P1;durP2;ratioP2;P2;SDS_P1;SDS_P2;PMS_P1;PMS_P2;Temp;Humidity;BMP_temperature;BMP_pressure;BME280_temperature;BME280_humidity;BME280_pressure;Samples;Min_cycle;Max_cycle;Signal;HPM_P1;HPM_P2
2022/06/29 00:01:55;;;;;;;11.78;8.55;;;;;;;21.09;77.92;100045.73;1785889;80;21158;-80
2022/06/29 00:05:00;;;;;;;12.93;9.20;;;;;;;21.06;78.55;100040.66;1784783;80;21546;-79
2022/06/29 00:08:06;;;;;;;15.88;10.03;;;;;;;21.01;79.17;100039.19;1785975;80;21224;-80
2022/06/29 00:11:13;;;;;;;20.50;10.05;;;;;;;20.96;79.77;100037.71;1775067;80;21225;-80
2022/06/29 00:14:18;;;;;;;20.45;11.05;;;;;;;20.93;80.34;100035.42;1752824;82;21229;-80
2022/06/29 00:17:25;;;;;;;17.17;9.23;;;;;;;20.91;80.75;100038.47;1752130;81;21244;-80
2022/06/29 00:20:31;;;;;;;14.75;9.80;;;;;;;20.88;81.08;100031.16;1753378;82;21164;-80
2022/06/29 00:23:39;;;;;;;17.52;9.43;;;;;;;20.87;81.12;100036.44;1752822;82;21225;-80
2022/06/29 00:26:45;;;;;;;17.52;9.95;;;;;;;20.85;81.41;100031.69;1754090;81;21181;-79
2022/06/29 00:29:45;;;;;;;16.85;10.53;;;;;;;20.83;81.65;100038.02;1754776;81;21280;-80
2022/06/29 00:32:52;;;;;;;15.68;10.08;;;;;;;20.80;81.84;100039.39;1755219;81;21166;-80
2022/06/29 00:35:58;;;;;;;16.42;10.82;;;;;;;20.76;82.17;100044.30;1753984;81;21186;-80
2022/06/29 00:39:04;;;;;;;19.55;10.48;;;;;;;20.73;82.62;100036.45;1755265;81;21772;-81
2022/06/29 00:42:10;;;;;;;17.00;9.98;;;;;;;20.67;83.07;100032.74;1776000;80;21376;-80
2022/06/29 00:45:17;;;;;;;18.10;10.65;;;;;;;20.67;83.53;100036.91;1784589;80;21217;-80
2022/06/29 00:48:23;;;;;;;16.85;10.75;;;;;;;20.62;83.95;100036.27;1784428;80;21868;-80
2022/06/29 00:51:29;;;;;;;18.02;11.45;;;;;;;20.60;84.38;100032.88;1786126;80;21193;-80
2022/06/29 00:54:36;;;;;;;18.27;11.57;;;;;;;20.57;84.93;100025.06;1785818;80;21229;-80
2022/06/29 00:57:42;;;;;;;24.75;12.05;;;;;;;20.54;85.40;100029.72;1786124;80;21173;-80
2022/06/29 01:00:49;;;;;;;17.98;11.80;;;;;;;20.51;85.74;100034.37;1784923;80;21201;-80
2022/06/29 01:03:49;;;;;;;15.90;11.63;;;;;;;20.51;86.03;100033.53;1784499;80;21169;-80
2022/06/29 01:06:48;;;;;;;19.20;12.58;;;;;;;20.50;86.24;100039.63;1786040;80;21717;-80
2022/06/29 01:09:54;;;;;;;22.22;12.25;;;;;;;20.49;86.60;100037.11;1786154;80;21233;-80
2022/06/29 01:13:01;;;;;;;15.88;12.55;;;;;;;20.45;87.12;100038.66;1786124;80;21186;-79
2022/06/29 01:16:06;;;;;;;19.07;13.28;;;;;;;20.44;87.66;100048.94;1784788;80;21832;-80
2022/06/29 01:19:12;;;;;;;18.15;12.35;;;;;;;20.43;88.16;100052.81;1785935;80;21206;-80
2022/06/29 01:22:23;;;;;;;16.37;12.25;;;;;;;20.41;88.55;100048.03;1786126;80;21781;-80
2022/06/29 01:25:22;;;;;;;18.82;11.25;;;;;;;20.36;88.92;100049.32;1785337;80;21252;-80
2022/06/29 01:28:30;;;;;;;18.98;11.80;;;;;;;20.36;89.20;100050.70;1786168;80;21177;-80
2022/06/29 01:31:36;;;;;;;16.95;11.48;;;;;;;20.35;89.51;100050.42;1785204;80;21252;-80
2022/06/29 01:34:42;;;;;;;21.68;12.55;;;;;;;20.34;89.70;100050.97;1801413;79;21228;-80
2022/06/29 01:37:49;;;;;;;21.95;12.20;;;;;;;20.35;89.89;100054.58;1805305;79;21220;-80
2022/06/29 01:40:54;;;;;;;16.48;12.20;;;;;;;20.33;90.34;100060.95;1796953;79;21799;-80
2022/06/29 01:44:00;;;;;;;17.25;11.63;;;;;;;20.33;90.71;100060.39;1795183;79;21236;-80
2022/06/29 01:47:06;;;;;;;15.28;11.20;;;;;;;20.33;91.20;100059.55;1804658;79;21794;-80
2022/06/29 01:50:12;;;;;;;14.45;11.20;;;;;;;20.34;91.59;100058.45;1798165;79;21142;-80
2022/06/29 01:53:18;;;;;;;17.05;11.12;;;;;;;20.35;91.86;100058.75;1790149;80;21706;-79
2022/06/29 01:56:19;;;;;;;14.78;11.18;;;;;;;20.35;92.29;100065.14;1783253;80;21181;-80
2022/06/29 01:59:26;;;;;;;14.78;10.05;;;;;;;20.39;92.35;100065.50;1772859;81;21220;-80
2022/06/29 02:02:31;;;;;;;14.53;10.32;;;;;;;20.56;91.73;100067.84;1773363;81;21208;-80
2022/06/29 02:05:37;;;;;;;16.87;10.10;;;;;;;20.66;91.37;100065.25;1783619;79;21260;-80
2022/06/29 02:08:44;;;;;;;14.95;10.30;;;;;;;20.84;90.70;100070.28;1761036;81;21185;-80
2022/06/29 02:11:50;;;;;;;13.53;9.98;;;;;;;21.06;89.66;100074.58;1783259;79;21169;-80
2022/06/29 02:14:56;;;;;;;17.55;11.20;;;;;;;21.24;88.45;100067.95;1772443;81;21152;-80
2022/06/29 02:18:02;;;;;;;14.00;9.60;;;;;;;21.40;87.52;100072.69;1800224;79;21205;-80
2022/06/29 02:21:09;;;;;;;17.50;10.23;;;;;;;21.57;86.51;100065.17;1804368;79;21562;-80
2022/06/29 02:24:18;;;;;;;12.47;9.70;;;;;;;21.72;85.57;100060.39;1789921;80;21150;-80
2022/06/29 02:27:23;;;;;;;13.28;9.28;;;;;;;21.85;84.90;100053.07;1803059;79;21216;-80
2022/06/29 02:37:18;;;;;;;23.45;11.08;;;;;;;22.56;81.90;100053.16;1804492;79;21845;-80
2022/06/29 02:40:23;;;;;;;13.72;9.73;;;;;;;22.83;80.60;100055.97;1803250;79;21763;-80
2022/06/29 02:43:29;;;;;;;18.80;10.78;;;;;;;23.12;79.61;100052.38;1755418;81;21316;-80
2022/06/29 02:46:34;;;;;;;16.35;11.03;;;;;;;23.48;77.86;100056.86;1756179;81;21205;-80
2022/06/29 02:49:39;;;;;;;17.25;10.85;;;;;;;23.79;76.21;100054.30;1756616;81;21174;-80
2022/06/29 02:52:46;;;;;;;19.02;10.65;;;;;;;24.10;74.75;100060.91;1756757;81;21181;-79
2022/06/29 02:55:55;;;;;;;19.17;10.60;;;;;;;24.46;73.17;100060.52;1768884;80;21229;-80
2022/06/29 02:58:59;;;;;;;21.20;12.25;;;;;;;24.58;72.18;100047.16;1774937;80;21184;-80
2022/06/29 03:02:05;;;;;;;18.87;11.25;;;;;;;24.79;70.94;100055.58;1773490;80;21213;-80
2022/06/29 03:05:11;;;;;;;18.40;11.57;;;;;;;24.98;69.90;100055.33;1789052;80;21247;-80
2022/06/29 03:08:11;;;;;;;21.85;11.65;;;;;;;25.15;68.88;100061.55;1786388;80;21192;-80
2022/06/29 03:11:17;;;;;;;19.45;11.15;;;;;;;25.19;68.19;100066.88;1743796;82;21307;-80
2022/06/29 03:14:24;;;;;;;16.87;10.93;;;;;;;25.22;68.03;100076.69;1772960;81;21267;-80
2022/06/29 03:17:29;;;;;;;25.05;12.07;;;;;;;25.29;67.78;100075.83;1788024;80;21221;-80
2022/06/29 03:20:35;;;;;;;18.67;11.73;;;;;;;25.37;67.19;100078.65;1787894;80;21157;-80
2022/06/29 03:23:41;;;;;;;19.90;10.95;;;;;;;25.38;66.83;100073.32;1736122;82;21256;-79
2022/06/29 03:26:47;;;;;;;16.60;11.12;;;;;;;25.37;66.38;100073.05;1759684;80;21219;-79
2022/06/29 03:29:53;;;;;;;18.77;12.82;;;;;;;25.31;66.40;100067.98;1757831;81;21746;-79
2022/06/29 03:33:00;;;;;;;19.80;11.43;;;;;;;25.34;66.50;100074.99;1761390;80;21200;-79
2022/06/29 03:36:08;;;;;;;32.70;12.88;;;;;;;25.40;66.33;100072.47;1734965;82;21198;-79
2022/06/29 03:39:07;;;;;;;21.93;11.85;;;;;;;25.44;65.97;100070.79;1749447;81;21747;-80
2022/06/29 03:42:00;;;;;;;23.15;12.37;;;;;;;25.56;65.62;100074.16;1742237;81;21191;-79
2022/06/29 03:45:06;;;;;;;15.65;11.20;;;;;;;25.62;65.23;100073.02;1745168;82;21205;-79
2022/06/29 03:48:11;;;;;;;20.15;10.53;;;;;;;25.72;64.55;100071.60;1755242;80;21224;-80
2022/06/29 03:51:17;;;;;;;19.60;11.70;;;;;;;25.77;64.67;100072.75;1763550;80;21232;-79
2022/06/29 03:54:23;;;;;;;17.98;11.18;;;;;;;25.86;64.12;100062.09;1767111;80;21169;-80
2022/06/29 03:57:29;;;;;;;20.35;11.33;;;;;;;25.96;63.90;100051.41;1774265;80;21184;-80
2022/06/29 04:00:36;;;;;;;23.02;12.23;;;;;;;26.05;63.23;100051.11;1775789;80;21235;-79
2022/06/29 04:03:43;;;;;;;21.00;11.10;;;;;;;26.07;63.13;100055.88;1776949;80;21836;-80
2022/06/29 04:06:49;;;;;;;19.42;11.03;;;;;;;26.07;63.13;100065.69;1739319;82;21201;-79
2022/06/29 04:09:59;;;;;;;19.75;11.35;;;;;;;26.14;62.82;100063.41;1760518;81;21173;-80
2022/06/29 04:13:04;;;;;;;19.87;11.95;;;;;;;26.17;62.87;100064.25;1764570;81;21182;-79
2022/06/29 04:16:09;;;;;;;18.92;11.38;;;;;;;26.17;62.92;100057.81;1765625;81;21828;-79
2022/06/29 04:19:16;;;;;;;14.93;9.60;;;;;;;26.00;63.30;100061.77;1765034;81;21292;-79
2022/06/29 04:22:22;;;;;;;21.52;11.48;;;;;;;25.94;63.77;100055.08;1764329;81;21248;-79
2022/06/29 04:25:22;;;;;;;16.77;10.80;;;;;;;25.89;64.15;100063.50;1766545;80;21127;-79
2022/06/29 04:28:27;;;;;;;15.83;12.15;;;;;;;25.87;64.08;100065.16;1790885;80;21217;-79
2022/06/29 04:31:34;;;;;;;20.20;11.65;;;;;;;25.97;64.36;100067.09;1788904;80;21498;-80
2022/06/29 04:34:39;;;;;;;18.10;10.28;;;;;;;26.12;63.96;100076.89;1784630;78;21237;-79
2022/06/29 04:37:46;;;;;;;16.27;9.85;;;;;;;26.28;63.17;100081.86;1784946;80;21193;-79
2022/06/29 04:40:51;;;;;;;19.25;10.78;;;;;;;26.31;62.59;100091.69;1772780;80;21162;-80
2022/06/29 04:43:58;;;;;;;16.65;10.82;;;;;;;26.25;63.30;100087.50;1763947;79;21204;-80
2022/06/29 04:47:04;;;;;;;19.42;10.68;;;;;;;26.29;62.68;100089.71;1769269;80;21724;-79
2022/06/29 04:50:11;;;;;;;17.35;11.25;;;;;;;26.30;62.93;100089.98;1761817;80;21721;-80
2022/06/29 04:53:17;;;;;;;18.10;10.55;;;;;;;26.36;62.83;100090.27;1761656;80;21237;-80
2022/06/29 04:56:23;;;;;;;16.23;10.88;;;;;;;26.50;62.88;100095.56;1782305;80;21197;-79
2022/06/29 04:59:29;;;;;;;13.38;10.20;;;;;;;26.68;62.18;100106.70;1788777;80;21840;-80
2022/06/29 05:02:34;;;;;;;20.72;11.30;;;;;;;26.75;61.71;100109.45;1770142;80;21181;-79
2022/06/29 05:05:40;;;;;;;14.68;10.40;;;;;;;26.81;61.08;100109.42;1768323;80;21205;-79
2022/06/29 05:08:47;;;;;;;24.23;10.90;;;;;;;26.75;61.39;100105.24;1771950;80;21208;-79
2022/06/29 05:11:54;;;;;;;19.45;10.32;;;;;;;26.84;61.21;100106.88;1760053;80;21174;-80
2022/06/29 05:15:00;;;;;;;16.85;9.63;;;;;;;26.92;60.79;100112.47;1763461;80;21253;-80
2022/06/29 05:18:07;;;;;;;15.93;9.45;;;;;;;26.92;60.78;100111.90;1735472;82;21816;-80
2022/06/29 05:21:15;;;;;;;19.60;10.53;;;;;;;27.00;60.46;100110.42;1789722;80;21760;-80
2022/06/29 05:24:22;;;;;;;14.50;9.88;;;;;;;27.11;60.39;100114.06;1731973;82;21203;-80
2022/06/29 05:27:27;;;;;;;17.15;10.03;;;;;;;27.22;60.15;100117.06;1778913;80;21188;-80
2022/06/29 05:30:33;;;;;;;23.83;11.48;;;;;;;27.32;59.85;100118.95;1759414;81;21197;-80
2022/06/29 05:33:39;;;;;;;16.85;10.03;;;;;;;27.38;59.39;100126.20;1784686;80;21240;-80
2022/06/29 05:36:45;;;;;;;16.60;9.60;;;;;;;27.40;59.35;100124.80;1763661;80;21227;-80
2022/06/29 05:39:50;;;;;;;20.12;11.65;;;;;;;27.43;59.62;100124.76;1736139;82;21196;-80
2022/06/29 05:43:01;;;;;;;14.00;9.60;;;;;;;27.47;59.50;100125.85;1773265;80;21164;-80
2022/06/29 05:46:06;;;;;;;17.90;9.50;;;;;;;27.48;59.87;100128.96;1779447;80;21212;-80
2022/06/29 05:49:12;;;;;;;13.05;9.25;;;;;;;27.56;59.61;100141.52;1778106;80;21240;-80
2022/06/29 05:52:19;;;;;;;13.55;9.38;;;;;;;27.61;58.85;100138.66;1766355;81;21818;-80
2022/06/29 05:55:26;;;;;;;14.13;8.85;;;;;;;27.58;58.71;100133.66;1772739;79;21209;-80
2022/06/29 06:03:59;;;;;;;13.28;9.95;;;;;;;27.68;59.52;100133.56;1849949;76;28109;-80
2022/06/29 06:07:05;;;;;;;13.68;9.60;;;;;;;27.74;58.79;100132.41;1832344;77;21534;-80
2022/06/29 06:10:11;;;;;;;17.07;9.00;;;;;;;27.88;58.50;100133.97;1815283;77;21527;-80
2022/06/29 06:13:17;;;;;;;20.72;9.60;;;;;;;27.97;58.56;100130.22;1823981;77;21746;-80
2022/06/29 06:16:22;;;;;;;17.37;9.55;;;;;;;28.07;57.80;100125.63;1829135;77;21184;-80
2022/06/29 06:19:30;;;;;;;16.00;8.93;;;;;;;28.18;57.14;100128.05;1839524;77;21162;-80
2022/06/29 06:22:35;;;;;;;18.00;7.97;;;;;;;28.31;56.67;100124.24;1847745;77;21204;-80
2022/06/29 06:25:49;;;;;;;15.05;9.00;;;;;;;28.46;56.52;100118.46;1831595;77;21193;-79
2022/06/29 06:29:04;;;;;;;11.38;8.28;;;;;;;28.78;55.03;100117.78;1819309;77;22582;-81
2022/06/29 06:32:09;;;;;;;13.88;8.00;;;;;;;28.78;55.03;100117.78;1818794;77;21217;-81
2022/06/29 06:35:16;;;;;;;12.43;8.08;;;;;;;28.90;54.75;100130.85;1817595;77;21231;-81
2022/06/29 06:38:22;;;;;;;13.32;8.30;;;;;;;29.01;54.51;100127.34;1830562;77;21754;-81
2022/06/29 06:41:29;;;;;;;11.30;8.15;;;;;;;29.08;53.98;100125.00;1832108;77;21180;-81
2022/06/29 06:44:34;;;;;;;13.45;7.22;;;;;;;29.21;53.41;100127.03;1816102;77;21165;-81
2022/06/29 06:47:40;;;;;;;10.65;7.72;;;;;;;29.24;53.27;100122.78;1815432;77;21251;-81
2022/06/29 06:50:46;;;;;;;14.18;8.00;;;;;;;29.28;52.35;100123.85;1817035;77;21552;-81
2022/06/29 06:53:53;;;;;;;14.10;7.90;;;;;;;29.25;52.89;100118.25;1843088;77;21720;-80
2022/06/29 06:57:01;;;;;;;15.43;7.53;;;;;;;29.31;52.62;100122.39;1833512;77;21697;-79
2022/06/29 07:00:07;;;;;;;10.78;7.08;;;;;;;29.40;52.44;100114.92;1783665;79;21192;-78
2022/06/29 07:03:07;;;;;;;11.15;7.40;;;;;;;29.47;51.74;100120.44;1777204;79;21169;-79
2022/06/29 07:06:16;;;;;;;24.72;7.75;;;;;;;29.51;51.19;100121.51;1774086;79;21236;-79
2022/06/29 07:09:21;;;;;;;12.60;7.33;;;;;;;29.54;51.37;100128.49;1726592;82;21245;-79
2022/06/29 07:12:28;;;;;;;9.70;7.10;;;;;;;29.61;51.57;100133.78;1779098;79;21233;-79
2022/06/29 07:15:34;;;;;;;10.88;7.37;;;;;;;29.64;50.43;100135.97;1770294;79;21256;-79
2022/06/29 07:18:40;;;;;;;11.18;6.85;;;;;;;29.70;50.82;100126.31;1729213;81;21599;-78
2022/06/29 07:21:47;;;;;;;11.88;7.53;;;;;;;29.82;50.37;100130.03;1766764;81;21587;-79
2022/06/29 07:24:52;;;;;;;11.78;7.85;;;;;;;29.98;50.03;100137.09;1766025;79;21810;-78
2022/06/29 07:27:58;;;;;;;11.15;7.95;;;;;;;30.13;47.75;100134.01;1778091;79;21178;-79
2022/06/29 07:31:04;;;;;;;16.62;7.62;;;;;;;30.21;49.10;100136.12;1767334;79;21189;-79
2022/06/29 07:34:10;;;;;;;11.90;5.97;;;;;;;30.29;49.18;100140.18;1739387;81;21253;-80
2022/06/29 07:37:15;;;;;;;11.22;6.08;;;;;;;30.40;47.52;100143.66;1714797;83;21258;-79
2022/06/29 07:40:21;;;;;;;7.90;5.28;;;;;;;30.48;45.19;100141.50;1782166;79;21443;-80
2022/06/29 07:43:27;;;;;;;9.63;5.92;;;;;;;30.46;44.67;100138.17;1714781;82;22391;-79
2022/06/29 07:46:32;;;;;;;9.73;5.83;;;;;;;30.47;45.27;100132.78;1718571;82;21227;-80
2022/06/29 07:49:39;;;;;;;9.35;5.50;;;;;;;30.48;44.34;100133.03;1766032;79;21265;-80
2022/06/29 07:52:44;;;;;;;9.85;5.87;;;;;;;30.49;42.19;100134.73;1766310;81;21236;-80
2022/06/29 07:55:52;;;;;;;7.33;4.90;;;;;;;30.52;43.27;100132.67;1766688;81;21244;-80
2022/06/29 07:59:00;;;;;;;6.33;4.47;;;;;;;30.65;42.95;100135.23;1766306;79;21230;-80
2022/06/29 08:02:09;;;;;;;5.15;3.85;;;;;;;30.75;42.00;100123.75;1729693;81;21182;-80
2022/06/29 08:05:16;;;;;;;6.12;4.28;;;;;;;30.86;40.11;100121.54;1773264;79;21177;-79
2022/06/29 08:08:24;;;;;;;8.23;4.17;;;;;;;30.97;39.05;100116.77;1767764;81;21270;-80
2022/06/29 08:11:29;;;;;;;6.92;4.05;;;;;;;31.04;38.55;100131.86;1767613;81;21178;-80
2022/06/29 08:14:34;;;;;;;5.47;3.58;;;;;;;31.07;38.94;100114.87;1766839;81;21201;-79
2022/06/29 08:17:41;;;;;;;8.58;4.00;;;;;;;31.15;35.51;100123.98;1768236;81;21193;-80
2022/06/29 08:20:47;;;;;;;5.53;3.27;;;;;;;31.25;35.04;100127.42;1766675;81;21247;-80
2022/06/29 08:23:54;;;;;;;6.42;4.55;;;;;;;31.25;34.27;100124.59;1773020;80;21823;-80
2022/06/29 08:27:00;;;;;;;7.72;3.83;;;;;;;31.26;36.34;100112.13;1710076;83;21236;-80
2022/06/29 08:30:08;;;;;;;8.98;4.00;;;;;;;31.21;33.41;100112.84;1730241;83;21800;-80
2022/06/29 08:33:14;;;;;;;7.90;3.85;;;;;;;31.17;34.56;100116.88;1799603;79;21284;-79
2022/06/29 08:36:20;;;;;;;6.22;4.10;;;;;;;31.14;34.99;100124.56;1729990;83;21788;-80
2022/06/29 08:39:27;;;;;;;3.52;2.67;;;;;;;31.12;34.67;100121.81;1797703;79;21186;-79
2022/06/29 08:42:33;;;;;;;4.62;3.62;;;;;;;31.20;34.26;100116.83;1722491;83;21270;-80
2022/06/29 08:45:38;;;;;;;9.83;3.92;;;;;;;31.39;33.04;100140.12;1766323;81;21842;-80
2022/06/29 08:48:45;;;;;;;6.67;4.00;;;;;;;31.39;33.26;100120.34;1766873;81;21563;-80
2022/06/29 08:51:54;;;;;;;14.38;4.20;;;;;;;31.34;33.52;100130.94;1766583;81;21507;-80
2022/06/29 08:54:59;;;;;;;6.50;3.75;;;;;;;31.37;34.68;100130.28;1766142;81;21252;-80
2022/06/29 08:58:05;;;;;;;4.47;3.22;;;;;;;31.48;34.26;100125.48;1774935;79;21253;-80
2022/06/29 09:01:10;;;;;;;5.45;3.58;;;;;;;31.53;34.37;100128.77;1712971;83;21205;-80
2022/06/29 09:04:18;;;;;;;7.00;4.22;;;;;;;31.58;34.57;100137.70;1767235;81;21190;-80
2022/06/29 09:07:23;;;;;;;5.10;3.45;;;;;;;31.50;33.66;100123.75;1767172;81;21254;-80
2022/06/29 09:10:29;;;;;;;6.50;4.00;;;;;;;31.46;34.58;100134.84;1767590;81;21183;-80
2022/06/29 09:13:37;;;;;;;4.85;3.80;;;;;;;31.54;34.08;100144.56;1767504;81;21199;-80
2022/06/29 09:17:01;;;;;;;4.42;3.33;;;;;;;31.49;34.41;100127.73;1767738;81;21163;-80
2022/06/29 09:20:08;;;;;;;5.55;4.33;;;;;;;31.45;34.59;100123.30;1767534;81;21214;-80
2022/06/29 09:23:17;;;;;;;17.45;4.65;;;;;;;31.48;34.23;100128.89;1766305;81;21238;-80
2022/06/29 09:26:27;;;;;;;6.83;3.30;;;;;;;31.46;33.99;100126.95;1765938;81;21222;-80
2022/06/29 09:29:39;;;;;;;4.17;3.77;;;;;;;31.48;34.16;100118.42;1766838;81;21195;-80
2022/06/29 09:32:40;;;;;;;7.25;3.72;;;;;;;31.51;33.64;100117.77;1769402;81;21171;-80
2022/06/29 09:35:47;;;;;;;8.33;3.98;;;;;;;31.53;33.38;100122.53;1769008;81;21192;-80
2022/06/29 09:38:54;;;;;;;5.62;3.85;;;;;;;31.47;33.87;100123.80;1768365;81;21211;-80
2022/06/29 09:42:05;;;;;;;4.83;3.70;;;;;;;31.46;34.51;100121.30;1768567;81;21214;-80
2022/06/29 09:45:05;;;;;;;5.53;3.92;;;;;;;31.55;33.82;100120.79;1768557;81;21820;-81
2022/06/29 09:48:13;;;;;;;5.87;3.77;;;;;;;31.60;33.20;100119.83;1768972;81;21228;-81
2022/06/29 09:51:31;;;;;;;15.43;3.83;;;;;;;31.53;33.49;100107.57;1768357;81;21230;-81
2022/06/29 09:54:43;;;;;;;6.67;3.50;;;;;;;31.49;33.71;100103.71;1768679;81;21187;-80
2022/06/29 09:57:38;;;;;;;6.42;3.62;;;;;;;31.55;33.50;100095.34;1769271;81;21266;-80
2022/06/29 10:04:06;;;;;;;8.68;3.45;;;;;;;31.69;32.77;100121.56;1769212;81;21175;-80
2022/06/29 10:07:13;;;;;;;5.17;3.25;;;;;;;31.70;33.24;100102.02;1774888;80;21177;-80
2022/06/29 10:10:24;;;;;;;11.63;3.75;;;;;;;31.74;32.66;100097.39;1783024;80;21225;-80
2022/06/29 10:13:43;;;;;;;3.90;3.50;;;;;;;31.81;32.46;100096.95;1783063;80;21224;-80
2022/06/29 10:17:00;;;;;;;4.95;3.90;;;;;;;31.91;33.09;100105.77;1782040;80;22470;-80
2022/06/29 10:20:31;;;;;;;7.58;4.05;;;;;;;32.04;32.51;100112.76;1782767;80;21169;-80
2022/06/29 10:24:02;;;;;;;9.18;3.85;;;;;;;32.06;32.99;100109.01;1782855;80;21224;-80
2022/06/29 10:27:16;;;;;;;4.05;3.65;;;;;;;32.06;33.13;100109.59;1781561;80;21902;-80
2022/06/29 10:30:33;;;;;;;9.15;3.60;;;;;;;32.13;32.73;100105.70;1781541;80;21181;-80
2022/06/29 10:33:41;;;;;;;6.87;3.62;;;;;;;32.17;33.40;100106.72;1750638;80;21177;-80
2022/06/29 10:37:13;;;;;;;9.68;3.83;;;;;;;32.31;33.09;100112.28;1782286;80;21217;-80
2022/06/29 10:40:30;;;;;;;4.65;3.12;;;;;;;32.25;33.29;100115.84;1783043;80;21380;-80
2022/06/29 10:43:28;;;;;;;7.97;3.27;;;;;;;32.23;33.62;100113.93;1783247;80;21756;-80
2022/06/29 10:46:35;;;;;;;3.87;3.27;;;;;;;32.10;33.70;100108.37;1776939;80;21142;-80
2022/06/29 10:49:41;;;;;;;4.12;3.40;;;;;;;31.86;34.03;100107.33;1762537;80;21167;-80
2022/06/29 10:52:50;;;;;;;9.60;4.30;;;;;;;31.70;34.20;100106.26;1761233;80;21226;-80
2022/06/29 10:56:01;;;;;;;7.05;3.98;;;;;;;31.58;33.96;100099.55;1779656;80;21146;-80
2022/06/29 11:03:32;;;;;;;8.43;3.87;;;;;;;31.99;33.09;100102.13;1876676;76;28697;-80
2022/06/29 11:13:06;;;;;;;6.37;3.42;;;;;;;31.73;33.86;100100.55;1780133;80;21227;-80
2022/06/29 11:16:13;;;;;;;5.10;3.60;;;;;;;31.86;33.47;100094.59;1756383;80;21731;-80
2022/06/29 11:19:22;;;;;;;4.50;3.75;;;;;;;31.90;33.38;100106.36;1736119;81;21199;-80
2022/06/29 11:22:27;;;;;;;6.15;3.67;;;;;;;31.83;33.49;100093.82;1758809;81;21784;-80
2022/06/29 11:25:34;;;;;;;5.87;3.98;;;;;;;31.76;34.02;100099.89;1759493;81;21174;-80
2022/06/29 11:28:42;;;;;;;4.10;3.62;;;;;;;31.80;34.02;100103.16;1734708;81;21748;-79
2022/06/29 11:31:48;;;;;;;6.95;3.25;;;;;;;31.81;33.60;100099.20;1759367;81;21196;-80
2022/06/29 11:34:54;;;;;;;7.22;3.75;;;;;;;31.77;33.46;100112.30;1759637;81;21719;-80
2022/06/29 11:38:05;;;;;;;6.33;3.40;;;;;;;31.74;34.09;100092.31;1759586;80;21224;-80
2022/06/29 11:45:02;;;;;;;4.75;3.45;;;;;;;31.92;33.36;100084.81;1758304;81;21261;-80
2022/06/29 11:48:08;;;;;;;8.88;3.72;;;;;;;32.07;33.36;100090.04;1760532;80;21196;-80
2022/06/29 11:51:18;;;;;;;4.90;3.35;;;;;;;32.16;32.76;100072.53;1743180;81;21759;-80
2022/06/29 11:54:24;;;;;;;6.58;3.50;;;;;;;32.16;32.71;100069.70;1759337;81;21185;-80
2022/06/29 11:57:30;;;;;;;10.13;3.55;;;;;;;32.18;32.79;100067.95;1757952;81;21783;-80
2022/06/29 12:00:39;;;;;;;8.30;3.83;;;;;;;32.21;33.15;100051.16;1729788;83;21311;-80
2022/06/29 12:03:46;;;;;;;5.03;3.40;;;;;;;32.28;32.63;100062.85;1718689;82;22519;-80
2022/06/29 12:06:52;;;;;;;3.65;3.08;;;;;;;32.29;32.89;100057.44;1809015;79;21177;-80
2022/06/29 12:09:59;;;;;;;4.30;3.17;;;;;;;32.30;32.71;100061.93;1807131;79;21434;-80
2022/06/29 12:13:05;;;;;;;9.88;3.70;;;;;;;32.34;32.61;100057.05;1807835;79;21172;-80
2022/06/29 12:16:12;;;;;;;7.95;4.00;;;;;;;32.28;33.08;100058.61;1806749;79;21192;-80
2022/06/29 12:19:18;;;;;;;5.70;3.60;;;;;;;32.28;33.51;100057.77;1790209;79;21207;-80
2022/06/29 12:22:27;;;;;;;7.37;3.47;;;;;;;32.38;33.28;100053.84;1780926;80;21205;-80
2022/06/29 12:25:32;;;;;;;15.45;4.42;;;;;;;32.40;32.71;100060.83;1785049;79;21188;-80
2022/06/29 12:28:32;;;;;;;6.35;3.55;;;;;;;32.33;32.99;100063.87;1752917;81;21252;-80
2022/06/29 12:31:37;;;;;;;6.83;3.77;;;;;;;32.33;33.32;100056.80;1744235;81;21231;-80
2022/06/29 12:34:44;;;;;;;4.72;3.52;;;;;;;32.45;33.21;100065.50;1778257;80;21215;-79
2022/06/29 12:37:52;;;;;;;5.75;3.92;;;;;;;32.47;32.54;100057.53;1778466;80;21168;-79
2022/06/29 12:40:57;;;;;;;8.25;4.03;;;;;;;32.34;32.45;100061.28;1778287;80;21603;-79
2022/06/29 12:44:05;;;;;;;8.20;3.80;;;;;;;32.30;32.65;100058.27;1778878;80;21204;-79
2022/06/29 12:47:14;;;;;;;5.72;3.20;;;;;;;32.29;33.05;100044.70;1784636;79;21743;-79
2022/06/29 12:50:18;;;;;;;5.65;3.52;;;;;;;32.38;32.02;100056.09;1786117;80;21873;-79
2022/06/29 12:53:24;;;;;;;5.22;3.65;;;;;;;32.32;32.42;100053.10;1778427;80;22358;-79
2022/06/29 12:56:30;;;;;;;6.25;3.60;;;;;;;32.34;32.33;100043.72;1779845;80;21836;-79
2022/06/29 12:59:37;;;;;;;7.50;3.47;;;;;;;32.38;32.67;100043.94;1741561;82;21248;-79
2022/06/29 13:02:43;;;;;;;7.45;3.27;;;;;;;32.34;32.04;100052.80;1781073;80;21229;-79
2022/06/29 13:05:49;;;;;;;6.05;3.70;;;;;;;32.11;32.40;100052.88;1709752;84;21184;-79
2022/06/29 13:08:57;;;;;;;8.23;4.10;;;;;;;31.91;32.64;100042.14;1716567;82;21192;-79
2022/06/29 13:12:04;;;;;;;4.50;3.35;;;;;;;31.70;32.98;100037.58;1711635;84;21261;-80
2022/06/29 13:15:10;;;;;;;8.50;3.80;;;;;;;31.51;33.27;100026.49;1710103;84;21204;-80
2022/06/29 13:18:18;;;;;;;7.00;3.92;;;;;;;31.40;33.65;100039.23;1739660;82;21460;-80
2022/06/29 13:21:24;;;;;;;6.85;3.60;;;;;;;31.39;33.70;100029.09;1739673;82;21237;-80
2022/06/29 13:24:30;;;;;;;4.97;3.72;;;;;;;31.49;33.75;100035.88;1738576;82;21220;-80
2022/06/29 13:27:36;;;;;;;9.33;3.30;;;;;;;31.57;33.36;100019.53;1739172;82;21197;-80
2022/06/29 13:30:42;;;;;;;5.62;3.85;;;;;;;31.64;33.50;100024.16;1713486;83;21200;-80
2022/06/29 13:33:48;;;;;;;10.98;3.95;;;;;;;31.73;33.74;100010.91;1739279;82;21228;-80
2022/06/29 13:36:55;;;;;;;7.70;3.90;;;;;;;31.81;33.72;100010.13;1713496;83;21752;-80
2022/06/29 13:40:01;;;;;;;6.08;3.62;;;;;;;31.78;33.59;100014.18;1739713;82;21193;-80
2022/06/29 13:43:07;;;;;;;8.50;3.95;;;;;;;31.64;33.36;99997.31;1713241;83;21739;-80
2022/06/29 13:46:12;;;;;;;8.23;3.90;;;;;;;31.40;33.96;100008.15;1739726;82;21169;-80
2022/06/29 13:49:19;;;;;;;6.65;3.87;;;;;;;31.27;34.26;100006.47;1713301;82;21232;-80
2022/06/29 13:52:27;;;;;;;10.78;4.45;;;;;;;31.27;34.44;100011.30;1740010;82;21181;-80
2022/06/29 13:55:32;;;;;;;7.87;4.20;;;;;;;31.35;34.02;100011.94;1713542;83;21217;-80
2022/06/29 13:58:39;;;;;;;8.78;4.15;;;;;;;31.40;34.13;100003.91;1709587;84;21788;-80
2022/06/29 14:01:45;;;;;;;6.45;3.67;;;;;;;31.47;33.61;100008.50;1713494;83;21244;-80
2022/06/29 14:04:53;;;;;;;9.88;3.90;;;;;;;31.48;33.65;99999.73;1746292;81;21772;-80
2022/06/29 14:07:59;;;;;;;8.00;4.00;;;;;;;31.50;33.30;100009.28;1802658;79;21173;-80
2022/06/29 14:11:09;;;;;;;7.83;3.90;;;;;;;31.47;32.96;99992.97;1801719;79;21300;-80
2022/06/29 14:14:16;;;;;;;6.15;3.85;;;;;;;31.46;33.17;99996.95;1802613;79;21165;-80
2022/06/29 14:17:22;;;;;;;7.87;3.95;;;;;;;31.47;33.28;99995.20;1801201;79;21280;-80
2022/06/29 14:20:20;;;;;;;;;;;;;;;31.48;33.05;100001.72;1804518;79;21213;-80
2022/06/29 14:23:25;;;;;;;12.85;3.70;;;;;;;31.45;33.36;99998.12;1802298;79;20248;-80
2022/06/29 14:26:31;;;;;;;19.77;4.00;;;;;;;31.45;33.39;100005.19;1800474;79;21180;-80
2022/06/29 14:29:39;;;;;;;9.95;3.60;;;;;;;31.50;33.30;100007.88;1802109;79;21173;-80
2022/06/29 14:32:41;;;;;;;6.40;3.98;;;;;;;31.57;33.28;100009.64;1800807;79;21177;-79
2022/06/29 14:35:47;;;;;;;12.88;3.47;;;;;;;31.55;33.48;100008.56;1802342;78;21826;-80
2022/06/29 14:38:53;;;;;;;5.90;3.92;;;;;;;31.51;33.46;100010.95;1802976;79;21185;-80
2022/06/29 14:42:01;;;;;;;11.25;4.20;;;;;;;31.44;33.70;100012.83;1803022;79;21177;-79
2022/06/29 14:45:06;;;;;;;5.87;4.00;;;;;;;31.36;33.61;100011.36;1801883;79;21212;-80
2022/06/29 14:48:13;;;;;;;8.33;3.90;;;;;;;31.35;33.69;100009.70;1802401;79;21189;-80
2022/06/29 14:51:20;;;;;;;5.83;3.50;;;;;;;31.36;33.53;100004.30;1801498;79;21212;-80